createdAt,value
2022-12-12T00:01:24.237Z,32.65
2022-12-12T00:03:52.618Z,31.73
2022-12-12T00:06:21.337Z,32.80
2022-12-12T00:08:49.748Z,32.92
2022-12-12T00:11:19.833Z,32.53
2022-12-12T00:13:48.076Z,32.78
2022-12-12T00:16:16.818Z,30.98
2022-12-12T00:18:44.941Z,29.75
2022-12-12T00:21:16.553Z,30.95
2022-12-12T00:23:44.730Z,29.80
2022-12-12T00:26:20.069Z,29.63
2022-12-12T00:28:48.452Z,30.08
2022-12-12T00:31:18.838Z,30.60
2022-12-12T00:33:48.954Z,31.15
2022-12-12T00:36:17.567Z,29.73
2022-12-12T00:38:45.881Z,31.52
2022-12-12T00:41:14.208Z,30.73
2022-12-12T00:43:44.276Z,30.20
2022-12-12T00:46:16.048Z,29.15
2022-12-12T00:48:44.524Z,29.40
2022-12-12T00:51:17.429Z,29.83
2022-12-12T00:53:45.918Z,31.23
2022-12-12T00:56:15.567Z,30.92
2022-12-12T00:58:45.182Z,29.65
2022-12-12T01:01:16.321Z,30.13
2022-12-12T01:03:45.221Z,31.75
2022-12-12T01:06:13.632Z,32.75
2022-12-12T01:08:42.088Z,31.58
2022-12-12T01:11:11.513Z,30.85
2022-12-12T01:13:40.097Z,32.03
2022-12-12T01:16:10.957Z,30.77
2022-12-12T01:18:40.145Z,31.83
2022-12-12T01:21:10.229Z,32.08
2022-12-12T01:23:38.562Z,30.55
2022-12-12T01:26:09.918Z,32.03
2022-12-12T01:28:40.332Z,31.13
2022-12-12T01:31:10.186Z,31.17
2022-12-12T01:33:38.619Z,32.55
2022-12-12T01:36:07.329Z,29.45
2022-12-12T01:38:35.585Z,30.42
2022-12-12T01:41:05.692Z,31.50
2022-12-12T01:43:33.926Z,28.98
2022-12-12T01:46:34.788Z,29.67
2022-12-12T01:49:13.062Z,28.85
2022-12-12T01:51:44.123Z,29.90
2022-12-12T01:54:15.911Z,31.55
2022-12-12T01:56:45.575Z,28.93
2022-12-12T01:59:18.950Z,29.05
2022-12-12T02:01:47.453Z,28.77
2022-12-12T02:04:18.108Z,28.70
2022-12-12T02:06:48.549Z,26.20
2022-12-12T02:09:18.318Z,28.33
2022-12-12T02:11:48.306Z,26.95
2022-12-12T02:14:23.407Z,28.30
2022-12-12T02:20:14.425Z,28.33
2022-12-12T02:23:15.428Z,26.90
2022-12-12T02:26:08.636Z,27.70
2022-12-12T02:31:19.524Z,26.88
2022-12-12T02:33:55.087Z,28.55
2022-12-12T02:36:30.885Z,26.70
2022-12-12T02:39:06.837Z,29.55
2022-12-12T02:41:41.935Z,29.27
2022-12-12T02:44:22.649Z,29.58
2022-12-12T02:46:57.895Z,27.80
2022-12-12T02:49:31.493Z,28.52
2022-12-12T02:52:02.182Z,28.95
2022-12-12T02:54:30.733Z,30.13
2022-12-12T02:57:00.935Z,29.92
2022-12-12T02:59:32.175Z,29.98
2022-12-12T03:02:42.478Z,29.85
2022-12-12T03:05:48.311Z,27.05
2022-12-12T03:08:29.156Z,29.05
2022-12-12T03:10:59.508Z,29.52
2022-12-12T03:13:44.061Z,28.25
2022-12-12T03:16:24.287Z,28.27
2022-12-12T03:19:00.828Z,29.58
2022-12-12T03:21:38.819Z,28.98
2022-12-12T03:24:11.199Z,27.13
2022-12-12T03:26:46.056Z,30.70
2022-12-12T03:29:18.727Z,29.08
2022-12-12T03:34:21.788Z,27.67
2022-12-12T03:36:53.241Z,29.95
2022-12-12T03:39:26.835Z,29.83
2022-12-12T03:42:00.852Z,28.90
2022-12-12T03:44:38.136Z,28.75
2022-12-12T03:47:12.945Z,27.73
2022-12-12T03:49:47.744Z,28.65
2022-12-12T03:52:21.761Z,28.33
2022-12-12T03:54:54.783Z,30.55
2022-12-12T03:57:28.238Z,27.67
2022-12-12T04:00:00.444Z,27.63
2022-12-12T04:02:33.877Z,28.60
2022-12-12T04:05:12.261Z,28.67
2022-12-12T04:07:45.088Z,28.38
2022-12-12T04:10:31.093Z,27.48
2022-12-12T04:13:09.277Z,27.90
2022-12-12T04:15:52.695Z,27.63
2022-12-12T04:18:32.057Z,26.92
2022-12-12T04:21:31.412Z,27.55
2022-12-12T04:24:10.872Z,25.65
2022-12-12T04:26:43.093Z,26.35
2022-12-12T04:29:20.713Z,27.77
2022-12-12T04:31:54.777Z,26.50
2022-12-12T04:34:36.607Z,26.23
2022-12-12T04:37:09.083Z,26.40
2022-12-12T04:39:40.784Z,26.92
2022-12-12T04:42:12.976Z,26.20
2022-12-12T04:44:43.516Z,27.88
2022-12-12T04:47:14.108Z,27.60
2022-12-12T04:49:44.669Z,27.63
2022-12-12T04:52:16.885Z,25.85
2022-12-12T04:54:50.601Z,24.98
2022-12-12T04:57:25.596Z,25.10
2022-12-12T04:59:53.787Z,24.00
2022-12-12T05:02:30.157Z,24.58
2022-12-12T05:05:03.192Z,24.83
2022-12-12T05:07:40.072Z,25.77
2022-12-12T05:10:14.398Z,24.20
2022-12-12T05:12:44.404Z,24.40
2022-12-12T05:15:12.763Z,23.42
2022-12-12T05:17:45.692Z,22.27
2022-12-12T05:22:43.277Z,22.15
2022-12-12T05:25:13.405Z,21.63
2022-12-12T05:27:41.788Z,18.50
2022-12-12T05:30:11.552Z,19.17
2022-12-12T05:32:39.616Z,16.83
2022-12-12T05:35:09.562Z,16.98
2022-12-12T05:37:37.783Z,17.05
2022-12-12T05:40:09.581Z,17.13
2022-12-12T05:42:37.604Z,14.93
2022-12-12T05:45:06.630Z,16.70
2022-12-12T05:47:36.964Z,15.82
2022-12-12T05:50:06.149Z,16.08
2022-12-12T05:52:34.815Z,15.52
2022-12-12T05:55:03.068Z,15.95
2022-12-12T05:57:32.585Z,14.73
2022-12-12T06:00:00.672Z,14.23
2022-12-12T06:02:28.789Z,14.60
2022-12-12T06:04:56.900Z,14.55
2022-12-12T06:07:25.482Z,14.82
2022-12-12T06:09:55.699Z,13.48
2022-12-12T06:12:24.184Z,14.30
2022-12-12T06:14:53.641Z,15.02
2022-12-12T06:17:21.836Z,14.57
2022-12-12T06:19:50.038Z,14.30
2022-12-12T06:22:18.124Z,13.52
2022-12-12T06:24:46.181Z,14.30
2022-12-12T06:27:14.307Z,13.32
2022-12-12T06:29:42.490Z,14.13
2022-12-12T06:32:12.310Z,12.70
2022-12-12T06:34:40.617Z,13.25
2022-12-12T06:37:14.106Z,12.90
2022-12-12T06:39:45.244Z,11.95
2022-12-12T06:42:15.637Z,12.57
2022-12-12T06:44:43.808Z,13.07
2022-12-12T06:47:13.302Z,14.25
2022-12-12T06:49:41.396Z,12.88
2022-12-12T06:52:09.517Z,12.30
2022-12-12T06:54:37.659Z,12.50
2022-12-12T06:57:05.870Z,12.68
2022-12-12T06:59:36.473Z,12.73
2022-12-12T07:02:05.707Z,12.77
2022-12-12T07:04:35.207Z,13.70
2022-12-12T07:07:03.528Z,13.27
2022-12-12T07:09:31.814Z,13.63
2022-12-12T07:11:59.902Z,13.05
2022-12-12T07:14:28.000Z,12.80
2022-12-12T07:16:56.122Z,13.07
2022-12-12T07:19:25.354Z,13.15
2022-12-12T07:21:54.876Z,14.15
2022-12-12T07:24:23.055Z,12.27
2022-12-12T07:26:51.243Z,13.23
2022-12-12T07:29:19.302Z,13.30
2022-12-12T07:31:47.649Z,14.10
2022-12-12T07:34:15.762Z,13.20
2022-12-12T07:36:44.048Z,12.90
2022-12-12T07:39:20.114Z,14.40
2022-12-12T07:41:48.873Z,13.35
2022-12-12T07:44:22.469Z,14.07
2022-12-12T07:46:50.543Z,12.63
2022-12-12T07:49:18.916Z,13.25
2022-12-12T07:51:49.263Z,12.45
2022-12-12T07:54:19.049Z,13.48
2022-12-12T07:56:47.127Z,12.18
2022-12-12T07:59:15.203Z,12.38
2022-12-12T08:01:43.566Z,12.02
2022-12-12T08:04:11.744Z,12.55
2022-12-12T08:06:40.097Z,13.60
2022-12-12T08:09:08.198Z,13.02
2022-12-12T08:11:44.622Z,13.15
2022-12-12T08:14:14.248Z,12.30
2022-12-12T08:16:42.870Z,12.38
2022-12-12T08:19:10.998Z,15.05
2022-12-12T08:21:39.059Z,13.35
2022-12-12T08:24:07.705Z,12.10
2022-12-12T08:26:37.212Z,11.95
2022-12-12T08:29:05.995Z,11.32
2022-12-12T08:31:35.037Z,11.85
2022-12-12T08:34:03.695Z,13.73
2022-12-12T08:36:33.140Z,12.07
2022-12-12T08:39:07.098Z,11.85
2022-12-12T08:41:38.295Z,11.70
2022-12-12T08:44:07.142Z,10.80
2022-12-12T08:46:35.842Z,10.98
2022-12-12T08:49:04.006Z,11.57
2022-12-12T08:51:32.108Z,11.18
2022-12-12T08:54:00.300Z,13.07
2022-12-12T08:56:28.553Z,12.82
2022-12-12T08:58:58.811Z,11.20
2022-12-12T09:01:28.637Z,10.90
2022-12-12T09:03:58.781Z,10.32
2022-12-12T09:06:27.629Z,9.63
2022-12-12T09:08:57.385Z,11.40
2022-12-12T09:11:27.691Z,10.35
2022-12-12T09:13:57.399Z,10.70
2022-12-12T09:16:27.576Z,10.90
2022-12-12T09:18:55.977Z,10.05
2022-12-12T09:21:24.511Z,9.48
2022-12-12T09:23:52.682Z,11.10
2022-12-12T09:26:20.798Z,12.10
2022-12-12T09:28:50.033Z,9.30
2022-12-12T09:31:21.003Z,10.95
2022-12-12T09:33:50.470Z,10.35
2022-12-12T09:36:18.965Z,11.07
2022-12-12T09:38:50.186Z,10.13
2022-12-12T09:41:20.629Z,11.07
2022-12-12T09:43:58.744Z,10.18
2022-12-12T09:46:35.915Z,11.18
2022-12-12T09:49:13.187Z,11.13
2022-12-12T09:51:43.385Z,10.02
2022-12-12T09:54:18.503Z,8.90
2022-12-12T09:57:08.604Z,9.63
2022-12-12T09:59:45.177Z,13.63
2022-12-12T10:02:41.566Z,9.32
2022-12-12T10:05:22.989Z,9.82
2022-12-12T10:08:00.480Z,9.38
2022-12-12T10:10:34.032Z,10.25
2022-12-12T10:13:07.651Z,10.30
2022-12-12T10:15:38.313Z,8.57
2022-12-12T10:18:13.780Z,8.88
2022-12-12T10:20:48.391Z,8.65
2022-12-12T10:23:22.596Z,9.15
2022-12-12T10:25:53.932Z,8.77
2022-12-12T10:28:25.181Z,8.15
2022-12-12T10:31:06.194Z,7.85
2022-12-12T10:33:54.088Z,8.20
2022-12-12T10:36:35.586Z,8.52
2022-12-12T10:39:18.622Z,9.05
2022-12-12T10:41:51.692Z,9.20
2022-12-12T10:44:35.759Z,9.30
2022-12-12T10:47:07.092Z,7.78
2022-12-12T10:49:40.150Z,7.60
2022-12-12T10:52:17.479Z,6.97
2022-12-12T10:54:48.891Z,7.72
2022-12-12T10:57:23.351Z,8.90
2022-12-12T10:59:53.452Z,9.18
2022-12-12T11:02:30.411Z,7.78
2022-12-12T11:05:09.879Z,11.43
2022-12-12T11:07:39.896Z,9.00
2022-12-12T11:10:27.975Z,8.57
2022-12-12T11:13:02.614Z,9.63
2022-12-12T11:15:40.702Z,9.18
2022-12-12T11:18:16.177Z,7.63
2022-12-12T11:20:52.472Z,6.15
2022-12-12T11:23:24.794Z,7.75
2022-12-12T11:25:57.786Z,8.23
2022-12-12T11:28:28.658Z,7.50
2022-12-12T11:30:57.711Z,8.50
2022-12-12T11:33:33.188Z,9.52
2022-12-12T11:36:06.339Z,14.55
2022-12-12T11:38:40.394Z,11.25
2022-12-12T11:41:10.560Z,9.55
2022-12-12T11:43:53.740Z,11.98
2022-12-12T11:46:25.562Z,10.95
2022-12-12T11:49:00.351Z,14.30
2022-12-12T11:51:35.819Z,17.77
2022-12-12T11:54:06.354Z,10.05
2022-12-12T11:56:45.507Z,10.23
2022-12-12T11:59:37.048Z,10.88
2022-12-12T12:02:34.439Z,10.45
2022-12-12T12:05:17.899Z,10.27
2022-12-12T12:08:01.900Z,10.90
2022-12-12T12:10:44.259Z,11.35
2022-12-12T12:13:30.374Z,11.93
2022-12-12T12:16:09.128Z,11.60
2022-12-12T12:18:56.310Z,13.43
2022-12-12T12:21:30.351Z,14.88
2022-12-12T12:24:17.263Z,14.85
2022-12-12T12:26:52.441Z,15.02
2022-12-12T12:29:43.878Z,13.27
2022-12-12T12:32:24.935Z,14.57
2022-12-12T12:35:02.343Z,12.77
2022-12-12T12:37:40.442Z,10.25
2022-12-12T12:40:24.142Z,10.05
2022-12-12T12:43:11.298Z,9.02
2022-12-12T12:45:46.654Z,9.80
2022-12-12T12:48:21.267Z,10.43
2022-12-12T12:50:54.042Z,9.52
2022-12-12T12:53:32.666Z,9.55
2022-12-12T12:56:09.693Z,8.77
2022-12-12T12:58:46.121Z,8.20
2022-12-12T13:01:20.322Z,7.57
2022-12-12T13:03:56.485Z,7.43
2022-12-12T13:06:39.939Z,9.02
2022-12-12T13:09:23.707Z,19.98
2022-12-12T13:11:58.641Z,12.40
2022-12-12T13:14:39.153Z,9.10
2022-12-12T13:17:13.131Z,22.48
2022-12-12T13:19:44.192Z,21.98
2022-12-12T13:22:16.532Z,12.65
2022-12-12T13:24:56.336Z,8.38
2022-12-12T13:27:34.103Z,8.25
2022-12-12T13:30:06.101Z,6.50
2022-12-12T13:33:05.517Z,7.73
2022-12-12T13:35:36.783Z,7.25
2022-12-12T13:38:05.391Z,6.45
2022-12-12T13:40:39.340Z,7.43
2022-12-12T13:43:26.873Z,6.93
2022-12-12T13:45:55.095Z,7.47
2022-12-12T13:48:46.902Z,7.03
2022-12-12T13:51:38.089Z,7.80
2022-12-12T13:54:44.982Z,7.70
2022-12-12T13:57:31.834Z,8.20
2022-12-12T14:00:21.141Z,8.15
2022-12-12T14:03:06.240Z,9.13
2022-12-12T14:05:36.644Z,10.70
2022-12-12T14:08:21.558Z,9.63
2022-12-12T14:10:59.236Z,9.95
2022-12-12T14:13:33.365Z,9.32
2022-12-12T14:16:08.878Z,8.85
2022-12-12T14:18:41.151Z,8.43
2022-12-12T14:21:13.164Z,8.65
2022-12-12T14:23:43.162Z,10.95
2022-12-12T14:26:48.187Z,12.27
2022-12-12T14:29:28.330Z,13.43
2022-12-12T14:32:14.710Z,13.30
2022-12-12T14:34:50.954Z,14.25
2022-12-12T14:37:48.325Z,13.77
2022-12-12T14:40:22.649Z,13.02
2022-12-12T14:43:20.264Z,14.30
2022-12-12T14:45:55.004Z,13.55
2022-12-12T14:48:29.043Z,14.73
2022-12-12T14:51:10.186Z,14.80
2022-12-12T14:53:47.967Z,14.55
2022-12-12T14:56:18.669Z,15.60
2022-12-12T14:58:50.599Z,14.68
2022-12-12T15:01:32.195Z,17.10
2022-12-12T15:04:05.025Z,16.45
2022-12-12T15:06:36.332Z,15.32
2022-12-12T15:09:25.781Z,16.55
2022-12-12T15:11:57.844Z,16.35
2022-12-12T15:14:28.650Z,15.25
2022-12-12T15:17:04.038Z,15.02
2022-12-12T15:19:38.427Z,15.18
2022-12-12T15:22:12.574Z,15.48
2022-12-12T15:24:41.393Z,15.93
2022-12-12T15:27:16.866Z,16.13
2022-12-12T15:29:46.588Z,16.20
2022-12-12T15:32:19.495Z,15.82
2022-12-12T15:35:00.183Z,15.88
2022-12-12T15:37:30.208Z,17.95
2022-12-12T15:40:17.462Z,14.45
2022-12-12T15:42:48.601Z,15.90
2022-12-12T15:45:22.875Z,16.60
2022-12-12T15:47:53.500Z,14.82
2022-12-12T15:50:26.630Z,15.50
2022-12-12T15:53:05.495Z,15.98
2022-12-12T15:55:34.738Z,15.30
2022-12-12T15:58:03.595Z,15.77
2022-12-12T16:00:36.436Z,15.65
2022-12-12T16:03:19.836Z,16.17
2022-12-12T16:06:03.015Z,17.23
2022-12-12T16:08:47.162Z,16.23
2022-12-12T16:11:39.833Z,15.10
2022-12-12T16:14:26.137Z,15.57
2022-12-12T16:16:58.800Z,15.48
2022-12-12T16:22:07.944Z,14.48
2022-12-12T16:24:47.380Z,16.52
2022-12-12T16:27:15.659Z,16.38
2022-12-12T16:29:44.279Z,16.00
2022-12-12T16:32:17.226Z,16.10
2022-12-12T16:34:46.788Z,15.50
2022-12-12T16:37:18.239Z,17.30
2022-12-12T16:39:46.705Z,15.40
2022-12-12T16:42:15.741Z,15.52
2022-12-12T16:44:43.986Z,16.67
2022-12-12T16:47:16.486Z,16.10
2022-12-12T16:49:44.722Z,14.68
2022-12-12T16:52:14.087Z,14.85
2022-12-12T16:54:49.611Z,14.13
2022-12-12T16:57:21.375Z,15.70
2022-12-12T16:59:49.602Z,14.90
2022-12-12T17:02:20.650Z,15.27
2022-12-12T17:04:49.304Z,14.13
2022-12-12T17:07:17.714Z,15.18
2022-12-12T17:09:47.202Z,14.35
2022-12-12T17:12:15.618Z,15.23
2022-12-12T17:14:43.914Z,15.45
2022-12-12T17:17:12.088Z,14.32
2022-12-12T17:19:40.258Z,14.38
2022-12-12T17:22:08.516Z,15.43
2022-12-12T17:24:39.011Z,15.10
2022-12-12T17:27:08.420Z,14.30
2022-12-12T17:29:36.554Z,14.48
2022-12-12T17:32:06.999Z,14.85
2022-12-12T17:34:35.469Z,15.77
2022-12-12T17:37:03.674Z,16.73
2022-12-12T17:39:31.821Z,14.55
2022-12-12T17:42:00.065Z,13.20
2022-12-12T17:44:29.729Z,12.70
2022-12-12T17:46:57.874Z,13.57
2022-12-12T17:49:25.988Z,11.50
2022-12-12T17:51:54.290Z,11.60
2022-12-12T17:54:22.535Z,12.02
2022-12-12T17:56:50.750Z,11.45
2022-12-12T17:59:18.993Z,11.32
2022-12-12T18:01:56.618Z,11.90
2022-12-12T18:04:28.243Z,10.68
2022-12-12T18:07:00.031Z,11.30
2022-12-12T18:09:30.848Z,10.18
2022-12-12T18:12:05.275Z,10.77
2022-12-12T18:14:33.559Z,11.30
2022-12-12T18:17:05.637Z,10.68
2022-12-12T18:19:33.830Z,11.18
2022-12-12T18:22:02.453Z,10.45
2022-12-12T18:24:32.444Z,9.82
2022-12-12T18:27:03.286Z,10.60
2022-12-12T18:29:32.207Z,10.25
2022-12-12T18:32:01.311Z,10.05
2022-12-12T18:34:30.866Z,8.07
2022-12-12T18:36:59.216Z,8.52
2022-12-12T18:39:27.499Z,8.13
2022-12-12T18:41:55.812Z,9.90
2022-12-12T18:44:24.417Z,8.40
2022-12-12T18:46:52.695Z,7.47
2022-12-12T18:49:21.044Z,8.93
2022-12-12T18:51:50.511Z,8.00
2022-12-12T18:54:18.690Z,8.82
2022-12-12T18:56:47.699Z,9.40
2022-12-12T18:59:16.642Z,10.07
2022-12-12T19:01:45.456Z,9.68
2022-12-12T19:04:22.768Z,8.33
2022-12-12T19:06:56.154Z,8.68
2022-12-12T19:09:24.438Z,8.87
2022-12-12T19:12:00.143Z,9.07
2022-12-12T19:15:15.260Z,7.65
2022-12-12T19:17:25.324Z,8.15
2022-12-12T19:19:54.890Z,9.98
2022-12-12T19:22:44.515Z,10.98
2022-12-12T19:25:14.159Z,10.98
2022-12-12T19:27:42.468Z,10.73
2022-12-12T19:30:12.668Z,10.52
2022-12-12T19:32:41.126Z,10.70
2022-12-12T19:35:10.025Z,10.80
2022-12-12T19:37:39.619Z,11.30
2022-12-12T19:40:09.933Z,11.43
2022-12-12T19:42:39.428Z,12.20
2022-12-12T19:45:09.808Z,12.95
2022-12-12T19:47:38.052Z,12.77
2022-12-12T19:50:07.201Z,13.70
2022-12-12T19:52:35.705Z,11.60
2022-12-12T19:55:05.874Z,13.68
2022-12-12T19:57:33.981Z,12.57
2022-12-12T20:00:02.194Z,11.55
2022-12-12T20:02:37.818Z,13.40
2022-12-12T20:05:06.585Z,14.13
2022-12-12T20:07:35.388Z,12.52
2022-12-12T20:10:05.194Z,12.07
2022-12-12T20:12:33.418Z,11.95
2022-12-12T20:15:01.709Z,12.25
2022-12-12T20:17:29.906Z,12.05
2022-12-12T20:19:58.096Z,10.43
2022-12-12T20:22:26.432Z,10.00
2022-12-12T20:24:54.741Z,10.85
2022-12-12T20:27:24.652Z,9.60
2022-12-12T20:29:53.029Z,7.75
2022-12-12T20:32:21.411Z,9.60
2022-12-12T20:34:49.825Z,9.27
2022-12-12T20:37:20.240Z,10.05
2022-12-12T20:39:48.679Z,10.95
2022-12-12T20:42:16.779Z,11.63
2022-12-12T20:44:46.388Z,12.63
2022-12-12T20:47:17.134Z,13.63
2022-12-12T20:49:45.509Z,12.50
2022-12-12T20:52:13.736Z,12.98
2022-12-12T20:54:41.856Z,15.70
2022-12-12T20:57:11.945Z,17.92
2022-12-12T20:59:40.305Z,18.48
2022-12-12T21:02:15.481Z,18.30
2022-12-12T21:04:43.718Z,17.42
2022-12-12T21:07:14.732Z,20.27
2022-12-12T21:09:42.946Z,21.65
2022-12-12T21:12:11.205Z,23.35
2022-12-12T21:14:39.464Z,23.10
2022-12-12T21:17:07.820Z,23.00
2022-12-12T21:19:37.662Z,24.10
2022-12-12T21:22:08.466Z,24.08
2022-12-12T21:24:36.882Z,24.88
2022-12-12T21:27:05.133Z,26.05
2022-12-12T21:29:33.833Z,25.10
2022-12-12T21:32:02.425Z,24.98
2022-12-12T21:34:30.893Z,25.67
2022-12-12T21:37:00.875Z,18.95
2022-12-12T21:39:30.632Z,21.08
2022-12-12T21:41:58.900Z,21.88
2022-12-12T21:44:27.445Z,21.90
2022-12-12T21:46:58.220Z,18.85
2022-12-12T21:49:30.947Z,16.70
2022-12-12T21:52:03.116Z,16.88
2022-12-12T21:54:32.127Z,16.13
2022-12-12T21:57:01.865Z,14.38
2022-12-12T21:59:30.860Z,11.57
2022-12-12T22:02:01.321Z,12.77
2022-12-12T22:04:29.941Z,12.82
2022-12-12T22:06:58.774Z,12.68
2022-12-12T22:09:30.669Z,12.45
2022-12-12T22:12:03.505Z,14.02
2022-12-12T22:14:33.676Z,15.63
2022-12-12T22:17:02.233Z,14.80
2022-12-12T22:19:33.092Z,13.68
2022-12-12T22:22:01.346Z,13.70
2022-12-12T22:24:31.051Z,14.38
2022-12-12T22:26:59.205Z,14.43
2022-12-12T22:29:27.354Z,12.93
2022-12-12T22:31:55.835Z,15.35
2022-12-12T22:34:25.383Z,13.20
2022-12-12T22:36:54.315Z,13.88
2022-12-12T22:39:24.488Z,13.43
2022-12-12T22:41:57.872Z,12.98
2022-12-12T22:44:27.379Z,13.68
2022-12-12T22:46:57.178Z,12.77
2022-12-12T22:49:28.464Z,13.70
2022-12-12T22:51:57.979Z,13.57
2022-12-12T22:54:26.611Z,15.70
2022-12-12T22:56:56.318Z,14.70
2022-12-12T22:59:25.302Z,13.63
2022-12-12T23:01:53.782Z,15.10
2022-12-12T23:04:22.511Z,15.18
2022-12-12T23:06:50.645Z,16.17
2022-12-12T23:09:21.483Z,14.60
2022-12-12T23:11:50.399Z,15.85
2022-12-12T23:14:22.697Z,14.38
2022-12-12T23:16:51.789Z,14.75
2022-12-12T23:19:21.833Z,15.77
2022-12-12T23:21:50.222Z,15.93
2022-12-12T23:24:18.403Z,16.00
2022-12-12T23:26:46.948Z,15.98
2022-12-12T23:29:16.894Z,15.45
2022-12-12T23:31:48.941Z,14.75
2022-12-12T23:34:20.746Z,12.43
2022-12-12T23:36:49.230Z,13.05
2022-12-12T23:39:17.609Z,15.38
2022-12-12T23:41:45.791Z,14.82
2022-12-12T23:44:16.089Z,16.35
2022-12-12T23:46:47.993Z,16.15
2022-12-12T23:49:19.534Z,16.50
2022-12-12T23:51:50.909Z,17.30
2022-12-12T23:54:20.727Z,16.23
2022-12-12T23:56:51.664Z,17.05
2022-12-12T23:59:21.008Z,17.20
